createdAt,value
2019-04-22T00:00:50.106Z,0.00
2019-04-22T00:01:50.378Z,0.00
2019-04-22T00:02:51.542Z,0.00
2019-04-22T00:03:53.192Z,0.00
2019-04-22T00:04:58.991Z,0.00
2019-04-22T00:06:09.900Z,0.00
2019-04-22T00:07:12.430Z,0.00
2019-04-22T00:08:09.095Z,0.00
2019-04-22T00:09:11.053Z,0.00
2019-04-22T00:10:12.086Z,0.00
2019-04-22T00:11:23.993Z,0.00
2019-04-22T00:12:14.544Z,0.00
2019-04-22T00:13:21.869Z,0.00
2019-04-22T00:14:06.731Z,0.00
2019-04-22T00:15:10.118Z,0.00
2019-04-22T00:16:07.182Z,0.00
2019-04-22T00:17:20.325Z,0.00
2019-04-22T00:18:16.468Z,0.00
2019-04-22T00:19:29.316Z,0.00
2019-04-22T00:21:12.739Z,0.00
2019-04-22T00:22:15.312Z,0.00
2019-04-22T00:23:12.253Z,0.00
2019-04-22T00:24:14.040Z,0.00
2019-04-22T00:25:17.709Z,0.00
2019-04-22T00:26:16.418Z,0.00
2019-04-22T00:27:13.774Z,0.00
2019-04-22T00:28:16.808Z,0.00
2019-04-22T00:29:26.988Z,0.00
2019-04-22T00:30:17.847Z,0.00
2019-04-22T00:31:08.882Z,0.00
2019-04-22T00:32:11.539Z,0.00
2019-04-22T00:33:07.858Z,0.00
2019-04-22T00:34:14.376Z,0.00
2019-04-22T00:35:12.989Z,0.00
2019-04-22T00:36:08.853Z,0.00
2019-04-22T00:37:08.026Z,0.00
2019-04-22T00:38:17.352Z,0.00
2019-04-22T00:39:15.041Z,0.00
2019-04-22T00:40:16.446Z,0.00
2019-04-22T00:41:14.891Z,0.00
2019-04-22T00:42:18.178Z,0.00
2019-04-22T00:43:16.480Z,0.00
2019-04-22T00:44:17.822Z,0.00
2019-04-22T00:45:11.714Z,0.00
2019-04-22T00:46:15.576Z,0.00
2019-04-22T00:47:17.975Z,0.00
2019-04-22T00:48:15.928Z,0.00
2019-04-22T00:49:52.992Z,0.00
2019-04-22T00:50:18.986Z,0.00
2019-04-22T00:51:13.906Z,0.00
2019-04-22T00:52:16.690Z,0.00
2019-04-22T00:53:16.440Z,0.00
2019-04-22T00:54:08.657Z,0.00
2019-04-22T00:55:15.225Z,0.00
2019-04-22T00:56:10.670Z,0.00
2019-04-22T00:57:08.756Z,0.00
2019-04-22T00:58:16.699Z,0.00
2019-04-22T00:59:12.908Z,0.00
2019-04-22T01:00:13.015Z,0.00
2019-04-22T01:01:14.070Z,0.00
2019-04-22T01:02:13.118Z,0.00
2019-04-22T01:03:22.843Z,0.00
2019-04-22T01:05:15.089Z,0.00
2019-04-22T01:06:09.741Z,0.00
2019-04-22T01:07:11.624Z,0.00
2019-04-22T01:08:15.141Z,0.00
2019-04-22T01:09:10.262Z,0.00
2019-04-22T01:10:11.732Z,0.00
2019-04-22T01:11:21.443Z,0.00
2019-04-22T01:12:13.619Z,0.00
2019-04-22T01:13:14.099Z,0.00
2019-04-22T01:14:07.822Z,0.00
2019-04-22T01:15:14.818Z,0.00
2019-04-22T01:16:10.803Z,0.00
2019-04-22T01:17:17.599Z,0.00
2019-04-22T01:18:11.754Z,0.00
2019-04-22T01:19:14.751Z,0.00
2019-04-22T01:20:17.634Z,0.00
2019-04-22T01:21:20.777Z,0.00
2019-04-22T01:22:14.395Z,0.00
2019-04-22T01:23:14.736Z,0.00
2019-04-22T01:24:12.121Z,0.00
2019-04-22T01:25:08.785Z,0.00
2019-04-22T01:26:08.098Z,0.00
2019-04-22T01:27:04.883Z,0.00
2019-04-22T01:28:00.926Z,0.00
2019-04-22T01:28:55.513Z,0.00
2019-04-22T01:29:59.768Z,0.00
2019-04-22T01:30:53.310Z,0.00
2019-04-22T01:31:48.849Z,0.00
2019-04-22T01:32:49.338Z,0.00
2019-04-22T01:34:00.485Z,0.00
2019-04-22T01:35:02.358Z,0.00
2019-04-22T01:36:08.029Z,0.00
2019-04-22T01:37:02.599Z,0.00
2019-04-22T01:38:06.514Z,0.00
2019-04-22T01:39:09.201Z,0.00
2019-04-22T01:40:09.863Z,0.00
2019-04-22T01:41:16.847Z,0.00
2019-04-22T01:42:10.410Z,0.00
2019-04-22T01:43:16.516Z,0.00
2019-04-22T01:44:27.942Z,0.00
2019-04-22T01:45:13.824Z,0.00
2019-04-22T01:46:16.058Z,0.00
2019-04-22T01:47:10.088Z,0.00
2019-04-22T01:48:12.903Z,0.00
2019-04-22T01:49:17.343Z,0.00
2019-04-22T01:50:16.431Z,0.00
2019-04-22T01:51:08.176Z,0.00
2019-04-22T01:52:12.758Z,0.00
2019-04-22T01:53:10.607Z,0.00
2019-04-22T01:54:12.216Z,0.00
2019-04-22T01:55:22.240Z,0.00
2019-04-22T01:56:13.597Z,0.00
2019-04-22T01:57:12.394Z,0.00
2019-04-22T01:58:08.439Z,0.00
2019-04-22T01:59:06.406Z,0.00
2019-04-22T02:00:00.796Z,0.00
2019-04-22T02:01:14.718Z,0.00
2019-04-22T02:02:09.245Z,0.00
2019-04-22T02:03:12.815Z,0.00
2019-04-22T02:04:17.610Z,0.00
2019-04-22T02:05:11.989Z,0.00
2019-04-22T02:06:19.036Z,0.00
2019-04-22T02:07:16.873Z,0.00
2019-04-22T02:08:15.054Z,0.00
2019-04-22T02:09:20.381Z,0.00
2019-04-22T02:10:13.985Z,0.00
2019-04-22T02:11:14.639Z,0.00
2019-04-22T02:12:13.139Z,0.00
2019-04-22T02:13:15.883Z,0.00
2019-04-22T02:14:11.663Z,0.00
2019-04-22T02:15:11.815Z,0.00
2019-04-22T02:16:15.217Z,0.00
2019-04-22T02:18:19.774Z,0.00
2019-04-22T02:19:19.066Z,0.00
2019-04-22T02:20:13.555Z,0.00
2019-04-22T02:21:07.256Z,0.00
2019-04-22T02:22:07.338Z,0.00
2019-04-22T02:23:30.296Z,0.00
2019-04-22T02:24:15.263Z,0.00
2019-04-22T02:25:17.751Z,0.00
2019-04-22T02:27:18.781Z,0.00
2019-04-22T02:28:16.725Z,0.00
2019-04-22T02:29:15.029Z,0.00
2019-04-22T02:30:07.775Z,0.00
2019-04-22T02:32:21.616Z,0.00
2019-04-22T02:33:45.893Z,0.00
2019-04-22T02:34:21.764Z,0.00
2019-04-22T02:35:24.027Z,0.00
2019-04-22T02:36:19.401Z,0.00
2019-04-22T02:38:34.876Z,0.00
2019-04-22T02:39:15.651Z,0.00
2019-04-22T02:40:19.438Z,0.00
2019-04-22T02:41:22.142Z,0.00
2019-04-22T02:43:26.151Z,0.00
2019-04-22T02:44:20.345Z,0.00
2019-04-22T02:45:23.157Z,0.00
2019-04-22T02:48:35.787Z,0.00
2019-04-22T02:49:18.921Z,0.00
2019-04-22T02:50:08.856Z,0.00
2019-04-22T02:51:17.049Z,0.00
2019-04-22T02:52:18.162Z,0.00
2019-04-22T02:53:29.730Z,0.00
2019-04-22T02:54:29.683Z,0.00
2019-04-22T02:55:15.569Z,0.00
2019-04-22T02:57:22.742Z,0.00
2019-04-22T02:58:27.779Z,0.00
2019-04-22T03:00:21.653Z,0.00
2019-04-22T03:01:24.941Z,0.00
2019-04-22T03:02:25.122Z,0.00
2019-04-22T03:03:45.871Z,0.00
2019-04-22T03:05:24.127Z,0.00
2019-04-22T03:06:26.089Z,0.00
2019-04-22T03:07:12.734Z,0.00
2019-04-22T03:08:25.234Z,0.00
2019-04-22T03:09:22.385Z,0.00
2019-04-22T03:10:26.708Z,0.00
2019-04-22T03:12:21.646Z,0.00
2019-04-22T03:13:23.376Z,0.00
2019-04-22T03:14:19.035Z,0.00
2019-04-22T03:15:34.855Z,0.00
2019-04-22T03:16:31.891Z,0.00
2019-04-22T03:17:25.171Z,0.00
2019-04-22T03:18:20.027Z,0.00
2019-04-22T03:19:28.045Z,0.00
2019-04-22T03:20:09.106Z,0.00
2019-04-22T03:22:17.027Z,0.00
2019-04-22T03:23:25.490Z,0.00
2019-04-22T03:24:20.586Z,0.00
2019-04-22T03:26:27.427Z,0.00
2019-04-22T03:28:20.980Z,0.00
2019-04-22T03:29:18.037Z,0.00
2019-04-22T03:30:41.880Z,0.00
2019-04-22T03:31:40.285Z,0.00
2019-04-22T03:32:42.230Z,0.00
2019-04-22T03:33:37.002Z,0.00
2019-04-22T03:35:14.139Z,0.00
2019-04-22T03:37:02.475Z,0.00
2019-04-22T03:38:32.838Z,0.00
2019-04-22T03:41:31.357Z,0.00
2019-04-22T03:43:20.950Z,0.00
2019-04-22T03:46:12.907Z,0.00
2019-04-22T03:47:27.917Z,0.00
2019-04-22T03:48:19.111Z,0.00
2019-04-22T03:49:28.241Z,0.00
2019-04-22T03:50:22.657Z,0.00
2019-04-22T03:51:29.132Z,0.00
2019-04-22T03:53:14.967Z,4.00
2019-04-22T03:56:47.369Z,4.00
2019-04-22T03:58:32.397Z,4.00
2019-04-22T04:01:22.003Z,8.00
2019-04-22T04:02:25.774Z,8.00
2019-04-22T04:04:25.984Z,12.00
2019-04-22T04:05:26.347Z,12.00
2019-04-22T04:06:18.000Z,16.00
2019-04-22T04:07:45.725Z,20.00
2019-04-22T04:09:23.955Z,24.00
2019-04-22T04:11:32.088Z,36.00
2019-04-22T04:12:28.297Z,40.00
2019-04-22T04:13:16.831Z,44.00
2019-04-22T04:15:18.618Z,64.00
2019-04-22T04:16:19.584Z,72.00
2019-04-22T04:18:13.789Z,96.00
2019-04-22T04:19:28.203Z,108.00
2019-04-22T04:20:23.320Z,124.00
2019-04-22T04:21:26.985Z,140.00
2019-04-22T04:22:32.272Z,160.00
2019-04-22T04:23:37.803Z,180.00
2019-04-22T04:24:38.971Z,200.00
2019-04-22T04:25:29.491Z,224.00
2019-04-22T04:26:33.564Z,252.00
2019-04-22T04:28:31.964Z,308.00
2019-04-22T04:29:36.217Z,340.00
2019-04-22T04:30:30.015Z,376.00
2019-04-22T04:31:25.159Z,416.00
2019-04-22T04:33:21.184Z,500.00
2019-04-22T04:34:28.444Z,552.00
2019-04-22T04:35:23.479Z,604.00
2019-04-22T04:36:27.036Z,660.00
2019-04-22T04:37:38.758Z,716.00
2019-04-22T04:38:19.100Z,772.00
2019-04-22T04:39:34.574Z,832.00
2019-04-22T04:40:25.106Z,892.00
2019-04-22T04:43:16.137Z,1056.00
2019-04-22T04:44:22.693Z,1112.00
2019-04-22T04:45:40.021Z,1176.00
2019-04-22T04:46:30.291Z,1240.00
2019-04-22T04:47:25.927Z,1304.00
2019-04-22T04:48:36.331Z,1372.00
2019-04-22T04:50:15.871Z,1504.00
2019-04-22T04:52:35.452Z,1644.00
2019-04-22T04:53:20.938Z,1724.00
2019-04-22T04:55:28.208Z,1888.00
2019-04-22T04:56:27.758Z,1960.00
2019-04-22T04:57:28.245Z,2044.00
2019-04-22T04:58:25.026Z,2124.00
2019-04-22T04:59:22.817Z,2212.00
2019-04-22T05:00:39.435Z,2296.00
2019-04-22T05:02:19.814Z,2468.00
2019-04-22T05:03:21.272Z,2552.00
2019-04-22T05:05:21.101Z,2736.00
2019-04-22T05:07:18.819Z,2928.00
2019-04-22T05:10:29.341Z,3264.00
2019-04-22T05:11:24.832Z,3388.00
2019-04-22T05:13:33.582Z,3620.00
2019-04-22T05:15:18.434Z,3852.00
2019-04-22T05:16:24.850Z,3960.00
2019-04-22T05:17:18.672Z,4064.00
2019-04-22T05:18:14.868Z,4176.00
2019-04-22T05:19:15.968Z,4296.00
2019-04-22T05:21:14.646Z,4524.00
2019-04-22T05:22:28.672Z,4620.00
2019-04-22T05:23:16.490Z,4708.00
2019-04-22T05:24:19.902Z,4800.00
2019-04-22T05:25:14.867Z,4892.00
2019-04-22T05:26:18.136Z,4976.00
2019-04-22T05:27:32.951Z,5076.00
2019-04-22T05:28:11.880Z,5160.00
2019-04-22T05:29:12.836Z,5272.00
2019-04-22T05:30:23.558Z,5396.00
2019-04-22T05:31:16.009Z,5508.00
2019-04-22T05:32:09.206Z,5628.00
2019-04-22T05:33:09.212Z,5716.00
2019-04-22T05:34:08.173Z,5784.00
2019-04-22T05:36:12.942Z,5932.00
2019-04-22T05:37:10.831Z,5972.00
2019-04-22T05:38:11.282Z,6112.00
2019-04-22T05:40:17.709Z,6320.00
2019-04-22T05:41:09.130Z,6420.00
2019-04-22T05:42:10.229Z,6472.00
2019-04-22T05:43:09.640Z,6540.00
2019-04-22T05:44:12.445Z,6616.00
2019-04-22T05:45:14.814Z,6624.00
2019-04-22T05:46:09.123Z,6660.00
2019-04-22T05:47:08.583Z,6764.00
2019-04-22T05:48:14.893Z,6828.00
2019-04-22T05:49:16.094Z,6832.00
2019-04-22T05:50:09.530Z,6868.00
2019-04-22T05:51:10.026Z,6956.00
2019-04-22T05:52:09.645Z,7072.00
2019-04-22T05:53:19.859Z,7200.00
2019-04-22T05:54:13.115Z,7376.00
2019-04-22T05:55:08.467Z,7536.00
2019-04-22T05:56:12.712Z,7612.00
2019-04-22T05:57:14.372Z,7768.00
2019-04-22T05:58:10.777Z,7900.00
2019-04-22T05:59:10.310Z,8072.00
2019-04-22T06:00:17.963Z,8228.00
2019-04-22T06:02:16.412Z,8564.00
2019-04-22T06:03:20.903Z,8628.00
2019-04-22T06:05:14.939Z,9096.00
2019-04-22T06:06:12.640Z,9584.00
2019-04-22T06:07:06.542Z,9780.00
2019-04-22T06:08:04.209Z,10100.00
2019-04-22T06:09:10.470Z,10268.00
2019-04-22T06:10:14.296Z,10460.00
2019-04-22T06:11:10.136Z,10712.00
2019-04-22T06:12:09.840Z,10932.00
2019-04-22T06:13:06.598Z,11228.00
2019-04-22T06:14:20.495Z,11480.00
2019-04-22T06:15:06.089Z,11568.00
2019-04-22T06:16:09.281Z,11396.00
2019-04-22T06:17:10.711Z,11596.00
2019-04-22T06:20:10.550Z,12656.00
2019-04-22T06:21:11.573Z,12984.00
2019-04-22T06:22:15.441Z,13096.00
2019-04-22T06:23:12.858Z,13328.00
2019-04-22T06:25:09.952Z,14020.00
2019-04-22T06:26:19.501Z,13924.00
2019-04-22T06:27:15.929Z,13648.00
2019-04-22T06:28:20.420Z,13720.00
2019-04-22T06:29:13.618Z,13788.00
2019-04-22T06:30:10.919Z,13836.00
2019-04-22T06:31:11.131Z,13976.00
2019-04-22T06:32:25.124Z,14208.00
2019-04-22T06:34:14.445Z,14580.00
2019-04-22T06:35:19.817Z,14760.00
2019-04-22T06:36:08.156Z,14692.00
2019-04-22T06:37:16.060Z,14788.00
2019-04-22T06:38:28.139Z,15044.00
2019-04-22T06:39:13.284Z,15328.00
2019-04-22T06:40:07.261Z,15028.00
2019-04-22T06:41:24.787Z,15032.00
2019-04-22T06:42:07.822Z,15024.00
2019-04-22T06:43:13.665Z,14892.00
2019-04-22T06:44:16.102Z,14784.00
2019-04-22T06:45:17.482Z,14448.00
2019-04-22T06:46:09.808Z,14108.00
2019-04-22T06:47:11.802Z,13732.00
2019-04-22T06:49:11.497Z,13016.00
2019-04-22T06:50:08.023Z,12896.00
2019-04-22T06:51:06.746Z,12752.00
2019-04-22T06:52:16.242Z,12596.00
2019-04-22T06:53:09.195Z,12604.00
2019-04-22T06:54:07.759Z,12560.00
2019-04-22T06:55:07.618Z,12556.00
2019-04-22T06:56:04.906Z,12720.00
2019-04-22T06:57:08.740Z,13040.00
2019-04-22T06:58:10.382Z,12836.00
2019-04-22T06:59:08.523Z,12724.00
2019-04-22T07:00:10.655Z,13124.00
2019-04-22T07:01:13.797Z,13660.00
2019-04-22T07:02:10.076Z,13920.00
2019-04-22T07:03:28.591Z,13176.00
2019-04-22T07:04:03.324Z,12452.00
2019-04-22T07:05:13.143Z,12800.00
2019-04-22T07:06:11.454Z,12756.00
2019-04-22T07:07:08.322Z,13668.00
2019-04-22T07:08:16.031Z,13416.00
2019-04-22T07:10:20.125Z,14356.00
2019-04-22T07:11:04.279Z,14356.00
2019-04-22T07:12:15.566Z,15744.00
2019-04-22T07:13:11.512Z,15520.00
2019-04-22T07:14:05.599Z,13720.00
2019-04-22T07:15:15.540Z,12528.00
2019-04-22T07:16:06.627Z,13100.00
2019-04-22T07:17:07.390Z,13884.00
2019-04-22T07:18:11.146Z,14356.00
2019-04-22T07:19:11.625Z,16480.00
2019-04-22T07:20:08.330Z,18432.00
2019-04-22T07:21:06.659Z,21248.00
2019-04-22T07:22:11.098Z,24256.00
2019-04-22T07:24:35.718Z,27232.00
2019-04-22T07:25:06.667Z,28192.00
2019-04-22T07:26:04.393Z,28480.00
2019-04-22T07:27:10.569Z,28896.00
2019-04-22T07:28:05.418Z,31168.00
2019-04-22T07:29:07.544Z,31200.00
2019-04-22T07:30:25.315Z,29952.00
2019-04-22T07:31:10.344Z,30784.00
2019-04-22T07:32:07.754Z,30624.00
2019-04-22T07:34:16.497Z,31072.00
2019-04-22T07:35:08.771Z,30720.00
2019-04-22T07:38:11.113Z,31552.00
2019-04-22T07:39:10.827Z,31744.00
2019-04-22T07:40:11.938Z,31808.00
2019-04-22T07:41:05.523Z,31008.00
2019-04-22T07:42:17.220Z,34272.00
2019-04-22T07:43:15.479Z,33088.00
2019-04-22T07:45:10.613Z,21216.00
2019-04-22T07:46:10.928Z,31936.00
2019-04-22T07:47:13.851Z,37632.00
2019-04-22T07:48:22.531Z,38368.00
2019-04-22T07:49:10.776Z,39552.00
2019-04-22T07:50:13.110Z,39552.00
2019-04-22T07:51:07.476Z,39424.00
2019-04-22T07:52:09.755Z,39648.00
2019-04-22T07:53:05.417Z,40064.00
2019-04-22T07:54:06.149Z,40544.00
2019-04-22T07:55:04.317Z,40960.00
2019-04-22T07:56:05.138Z,42336.00
2019-04-22T07:57:15.092Z,42720.00
2019-04-22T07:58:16.977Z,42592.00
2019-04-22T07:59:09.522Z,43488.00
2019-04-22T08:00:10.934Z,44640.00
2019-04-22T08:01:08.837Z,33600.00
2019-04-22T08:02:09.333Z,21024.00
2019-04-22T08:03:13.257Z,16224.00
2019-04-22T08:04:17.544Z,15936.00
2019-04-22T08:06:12.360Z,15648.00
2019-04-22T08:08:13.043Z,15360.00
2019-04-22T08:09:19.867Z,15156.00
2019-04-22T08:10:17.107Z,15044.00
2019-04-22T08:11:22.145Z,14956.00
2019-04-22T08:12:07.949Z,14892.00
2019-04-22T08:13:05.406Z,14848.00
2019-04-22T08:14:07.192Z,14788.00
2019-04-22T08:15:08.303Z,14772.00
2019-04-22T08:17:30.808Z,14700.00
2019-04-22T08:18:21.890Z,14692.00
2019-04-22T08:19:10.232Z,14644.00
2019-04-22T08:20:14.017Z,14616.00
2019-04-22T08:21:06.265Z,14608.00
2019-04-22T08:22:10.375Z,14588.00
2019-04-22T08:23:09.619Z,14560.00
2019-04-22T08:24:12.779Z,14536.00
2019-04-22T08:25:10.539Z,14520.00
2019-04-22T08:26:05.458Z,14492.00
2019-04-22T08:27:25.409Z,14468.00
2019-04-22T08:28:10.610Z,14440.00
2019-04-22T08:29:23.182Z,14424.00
2019-04-22T08:31:07.651Z,14440.00
2019-04-22T08:32:05.178Z,14404.00
2019-04-22T08:33:09.667Z,14496.00
2019-04-22T08:34:11.285Z,14516.00
2019-04-22T08:35:04.663Z,14544.00
2019-04-22T08:37:37.409Z,14648.00
2019-04-22T08:38:09.989Z,14696.00
2019-04-22T08:39:08.271Z,14744.00
2019-04-22T08:40:12.677Z,14800.00
2019-04-22T08:41:08.363Z,14876.00
2019-04-22T08:42:16.225Z,14952.00
2019-04-22T08:43:14.400Z,15032.00
2019-04-22T08:44:13.416Z,15116.00
2019-04-22T08:46:05.676Z,15328.00
2019-04-22T08:47:16.253Z,15552.00
2019-04-22T08:48:11.098Z,15648.00
2019-04-22T08:49:07.151Z,15712.00
2019-04-22T08:50:07.732Z,15808.00
2019-04-22T08:51:08.792Z,15904.00
2019-04-22T08:52:10.788Z,16032.00
2019-04-22T08:53:08.377Z,16128.00
2019-04-22T08:54:13.703Z,16192.00
2019-04-22T08:55:12.714Z,16320.00
2019-04-22T08:56:22.008Z,16448.00
2019-04-22T08:58:21.685Z,16672.00
2019-04-22T08:59:07.929Z,16800.00
2019-04-22T09:00:10.626Z,16896.00
2019-04-22T09:01:11.250Z,17024.00
2019-04-22T09:02:13.294Z,17184.00
2019-04-22T09:03:04.392Z,17280.00
2019-04-22T09:05:12.036Z,17568.00
2019-04-22T09:06:11.337Z,17728.00
2019-04-22T09:08:13.901Z,18080.00
2019-04-22T09:09:06.439Z,18272.00
2019-04-22T09:10:24.399Z,18496.00
2019-04-22T09:11:11.300Z,18752.00
2019-04-22T09:12:07.885Z,19104.00
2019-04-22T09:13:06.484Z,20000.00
2019-04-22T09:14:12.242Z,35168.00
2019-04-22T09:15:08.618Z,56864.00
2019-04-22T09:16:16.663Z,58496.00
2019-04-22T09:17:13.307Z,59616.00
2019-04-22T09:18:12.165Z,61856.00
2019-04-22T09:19:05.712Z,54784.00
2019-04-22T09:20:07.785Z,32064.00
2019-04-22T09:21:15.492Z,32928.00
2019-04-22T09:22:04.932Z,55264.00
2019-04-22T09:23:07.277Z,61088.00
2019-04-22T09:25:00.434Z,63296.00
2019-04-22T09:26:09.095Z,65280.00
2019-04-22T09:27:11.550Z,65216.00
2019-04-22T09:28:01.921Z,65440.00
2019-04-22T09:30:09.893Z,65312.00
2019-04-22T09:31:06.469Z,65408.00
2019-04-22T09:33:11.105Z,67424.00
2019-04-22T09:34:12.313Z,64736.00
2019-04-22T09:35:03.005Z,65408.00
2019-04-22T09:37:09.016Z,65792.00
2019-04-22T09:38:23.751Z,58944.00
2019-04-22T09:39:10.157Z,46016.00
2019-04-22T09:40:14.001Z,29088.00
2019-04-22T09:41:06.478Z,41600.00
2019-04-22T09:42:04.985Z,66464.00
2019-04-22T09:43:04.970Z,67040.00
2019-04-22T09:44:02.925Z,65248.00
2019-04-22T09:45:05.868Z,65376.00
2019-04-22T09:46:08.961Z,60128.00
2019-04-22T09:47:06.198Z,64096.00
2019-04-22T09:48:12.461Z,62784.00
2019-04-22T09:49:12.000Z,67616.00
2019-04-22T09:50:24.000Z,70048.00
2019-04-22T09:51:08.672Z,66752.00
2019-04-22T09:52:02.955Z,71264.00
2019-04-22T09:53:08.702Z,50112.00
2019-04-22T09:55:12.960Z,49024.00
2019-04-22T09:56:03.939Z,73344.00
2019-04-22T09:57:07.417Z,70560.00
2019-04-22T09:58:03.057Z,71136.00
2019-04-22T09:59:02.617Z,66464.00
2019-04-22T10:00:12.182Z,68896.00
2019-04-22T10:01:13.626Z,70912.00
2019-04-22T10:02:19.864Z,70496.00
2019-04-22T10:03:06.876Z,70368.00
2019-04-22T10:04:18.207Z,69632.00
2019-04-22T10:05:09.399Z,47168.00
2019-04-22T10:06:16.541Z,40192.00
2019-04-22T10:07:11.459Z,66912.00
2019-04-22T10:08:14.480Z,70272.00
2019-04-22T10:09:25.949Z,69728.00
2019-04-22T10:10:08.977Z,69888.00
2019-04-22T10:11:14.329Z,70080.00
2019-04-22T10:12:02.182Z,69376.00
2019-04-22T10:13:03.205Z,70624.00
2019-04-22T10:14:09.753Z,58240.00
2019-04-22T10:15:06.451Z,37888.00
2019-04-22T10:16:12.177Z,27520.00
2019-04-22T10:17:23.741Z,27552.00
2019-04-22T10:18:02.873Z,43264.00
2019-04-22T10:19:04.333Z,54208.00
2019-04-22T10:20:06.817Z,52032.00
2019-04-22T10:21:08.889Z,45536.00
2019-04-22T10:22:08.610Z,34816.00
2019-04-22T10:23:05.436Z,37152.00
2019-04-22T10:25:03.359Z,63104.00
2019-04-22T10:26:04.979Z,68864.00
2019-04-22T10:27:01.556Z,64192.00
2019-04-22T10:28:08.821Z,55776.00
2019-04-22T10:29:09.074Z,42976.00
2019-04-22T10:30:08.761Z,55296.00
2019-04-22T10:31:21.622Z,55648.00
2019-04-22T10:32:06.832Z,47456.00
2019-04-22T10:33:02.526Z,44064.00
2019-04-22T10:33:58.828Z,35008.00
2019-04-22T10:34:47.409Z,33536.00
2019-04-22T10:35:41.385Z,27904.00
2019-04-22T10:36:39.771Z,34432.00
2019-04-22T10:37:40.392Z,49184.00
2019-04-22T10:38:40.218Z,54880.00
2019-04-22T10:39:46.084Z,51968.00
2019-04-22T10:40:40.769Z,59424.00
2019-04-22T10:41:39.036Z,56896.00
2019-04-22T10:42:39.068Z,61184.00
2019-04-22T10:43:39.274Z,66784.00
2019-04-22T10:44:39.299Z,71008.00
2019-04-22T10:45:39.798Z,72064.00
2019-04-22T10:46:40.244Z,70176.00
2019-04-22T10:47:40.361Z,68768.00
2019-04-22T10:48:40.118Z,69312.00
2019-04-22T10:49:40.287Z,70336.00
2019-04-22T10:50:39.428Z,73952.00
2019-04-22T10:51:40.280Z,80192.00
2019-04-22T10:52:39.384Z,83616.00
2019-04-22T10:53:39.624Z,82016.00
2019-04-22T10:54:38.897Z,81376.00
2019-04-22T10:55:41.675Z,80992.00
2019-04-22T10:56:39.112Z,79296.00
2019-04-22T10:57:39.050Z,79680.00
2019-04-22T10:58:38.839Z,80192.00
2019-04-22T10:59:38.855Z,80544.00
2019-04-22T11:00:39.723Z,79744.00
2019-04-22T11:01:40.250Z,80064.00
2019-04-22T11:02:39.529Z,80608.00
2019-04-22T11:03:39.532Z,80896.00
2019-04-22T11:04:38.860Z,79456.00
2019-04-22T11:05:39.923Z,80448.00
2019-04-22T11:06:45.832Z,80416.00
2019-04-22T11:07:47.585Z,78912.00
2019-04-22T11:08:46.678Z,79712.00
2019-04-22T11:09:49.305Z,78208.00
2019-04-22T11:10:59.053Z,77440.00
2019-04-22T11:11:48.940Z,78496.00
2019-04-22T11:12:41.303Z,78560.00
2019-04-22T11:13:39.903Z,78208.00
2019-04-22T11:14:41.854Z,77952.00
2019-04-22T11:15:38.674Z,77152.00
2019-04-22T11:16:39.493Z,81280.00
2019-04-22T11:17:39.692Z,81536.00
2019-04-22T11:18:38.649Z,81376.00
2019-04-22T11:19:39.490Z,80032.00
2019-04-22T11:20:39.776Z,78624.00
2019-04-22T11:21:38.618Z,80064.00
2019-04-22T11:22:38.948Z,83552.00
2019-04-22T11:23:38.721Z,82784.00
2019-04-22T11:24:38.901Z,83808.00
2019-04-22T11:25:39.551Z,81632.00
2019-04-22T11:26:38.892Z,83264.00
2019-04-22T11:27:39.080Z,83264.00
2019-04-22T11:28:38.624Z,84800.00
2019-04-22T11:29:39.363Z,86112.00
2019-04-22T11:30:38.806Z,85984.00
2019-04-22T11:31:38.814Z,85216.00
2019-04-22T11:32:38.508Z,87104.00
2019-04-22T11:33:38.706Z,86208.00
2019-04-22T11:34:39.358Z,86080.00
2019-04-22T11:35:39.572Z,86016.00
2019-04-22T11:36:38.917Z,82720.00
2019-04-22T11:37:38.794Z,79328.00
2019-04-22T11:38:48.610Z,76096.00
2019-04-22T11:39:40.736Z,77856.00
2019-04-22T11:40:42.200Z,79744.00
2019-04-22T11:41:40.244Z,70720.00
2019-04-22T11:42:38.608Z,78816.00
2019-04-22T11:43:38.987Z,70752.00
2019-04-22T11:44:39.163Z,82240.00
2019-04-22T11:45:39.623Z,82112.00
2019-04-22T11:46:39.198Z,81440.00
2019-04-22T11:47:39.347Z,80320.00
2019-04-22T11:48:38.408Z,79616.00
2019-04-22T11:49:39.629Z,79872.00
2019-04-22T11:50:39.910Z,81184.00
2019-04-22T11:51:38.331Z,80128.00
2019-04-22T11:52:38.323Z,78304.00
2019-04-22T11:53:38.648Z,77792.00
2019-04-22T11:54:38.871Z,77856.00
2019-04-22T11:55:38.345Z,78592.00
2019-04-22T11:56:38.898Z,80064.00
2019-04-22T11:57:39.202Z,79232.00
2019-04-22T11:58:39.034Z,78976.00
2019-04-22T11:59:38.590Z,81952.00
2019-04-22T12:00:39.009Z,83296.00
2019-04-22T12:01:39.007Z,81728.00
2019-04-22T12:02:38.788Z,83296.00
2019-04-22T12:03:38.214Z,82240.00
2019-04-22T12:04:38.267Z,82272.00
2019-04-22T12:05:39.615Z,79616.00
2019-04-22T12:06:38.193Z,79136.00
2019-04-22T12:07:38.936Z,79104.00
2019-04-22T12:08:39.659Z,76480.00
2019-04-22T12:09:39.509Z,77120.00
2019-04-22T12:10:48.271Z,80448.00
2019-04-22T12:11:40.497Z,81024.00
2019-04-22T12:12:39.598Z,81568.00
2019-04-22T12:13:38.130Z,81952.00
2019-04-22T12:14:38.309Z,83840.00
2019-04-22T12:15:38.147Z,82848.00
2019-04-22T12:16:39.261Z,82176.00
2019-04-22T12:17:38.189Z,81152.00
2019-04-22T12:18:39.509Z,80512.00
2019-04-22T12:19:38.089Z,82144.00
2019-04-22T12:20:39.196Z,82944.00
2019-04-22T12:21:39.219Z,79744.00
2019-04-22T12:22:38.914Z,79552.00
2019-04-22T12:23:39.148Z,80256.00
2019-04-22T12:24:38.372Z,79648.00
2019-04-22T12:25:46.345Z,80832.00
2019-04-22T12:26:40.025Z,78976.00
2019-04-22T12:27:38.958Z,81024.00
2019-04-22T12:28:39.241Z,81440.00
2019-04-22T12:29:38.670Z,80640.00
2019-04-22T12:30:39.350Z,80128.00
2019-04-22T12:31:37.955Z,78784.00
2019-04-22T12:32:39.032Z,79072.00
2019-04-22T12:33:39.190Z,78400.00
2019-04-22T12:34:37.916Z,76672.00
2019-04-22T12:35:38.800Z,76768.00
2019-04-22T12:36:38.480Z,78624.00
2019-04-22T12:37:47.071Z,78560.00
2019-04-22T12:38:39.895Z,78080.00
2019-04-22T12:39:39.138Z,77536.00
2019-04-22T12:40:46.747Z,76864.00
2019-04-22T12:41:40.154Z,77920.00
2019-04-22T12:42:39.338Z,78496.00
2019-04-22T12:43:38.715Z,78976.00
2019-04-22T12:44:40.507Z,78784.00
2019-04-22T12:45:38.481Z,77376.00
2019-04-22T12:46:38.363Z,77792.00
2019-04-22T12:47:38.094Z,79104.00
2019-04-22T12:48:39.108Z,79616.00
2019-04-22T12:49:40.671Z,80896.00
2019-04-22T12:50:41.802Z,80608.00
2019-04-22T12:51:38.891Z,79968.00
2019-04-22T12:52:45.698Z,79040.00
2019-04-22T12:53:40.123Z,54848.00
2019-04-22T12:54:39.092Z,24672.00
2019-04-22T12:55:37.738Z,21600.00
2019-04-22T12:56:37.714Z,21472.00
2019-04-22T12:57:38.889Z,21120.00
2019-04-22T12:58:38.041Z,21280.00
2019-04-22T12:59:37.679Z,21120.00
2019-04-22T13:00:38.437Z,20992.00
2019-04-22T13:01:38.888Z,20800.00
2019-04-22T13:02:38.852Z,20448.00
2019-04-22T13:03:38.286Z,20064.00
2019-04-22T13:04:38.469Z,19744.00
2019-04-22T13:05:37.668Z,19424.00
2019-04-22T13:06:37.619Z,18912.00
2019-04-22T13:07:37.997Z,18272.00
2019-04-22T13:08:38.099Z,17856.00
2019-04-22T13:09:38.972Z,17696.00
2019-04-22T13:10:45.642Z,17568.00
2019-04-22T13:11:40.238Z,17792.00
2019-04-22T13:12:37.608Z,18112.00
2019-04-22T13:13:38.712Z,18400.00
2019-04-22T13:14:38.956Z,18624.00
2019-04-22T13:15:39.105Z,18720.00
2019-04-22T13:16:38.622Z,18752.00
2019-04-22T13:17:37.938Z,19040.00
2019-04-22T13:18:44.283Z,19232.00
2019-04-22T13:19:38.489Z,19488.00
2019-04-22T13:20:38.625Z,19872.00
2019-04-22T13:21:38.473Z,20160.00
2019-04-22T13:22:38.773Z,20352.00
2019-04-22T13:23:38.943Z,20480.00
2019-04-22T13:24:37.423Z,20736.00
2019-04-22T13:25:38.779Z,21088.00
2019-04-22T13:26:38.093Z,21504.00
2019-04-22T13:27:37.391Z,21792.00
2019-04-22T13:28:38.863Z,22016.00
2019-04-22T13:29:37.371Z,22112.00
2019-04-22T13:30:38.634Z,22208.00
2019-04-22T13:31:37.403Z,22144.00
2019-04-22T13:32:38.657Z,22048.00